sensor_id;sensor_type;location;lat;lon;timestamp;pressure;altitude;pressure_sealevel;temperature;humidity
18323;BME280;9287;49.456;11.064;2022-12-07T00:01:31;98157.97;;;3.06;100.00
18323;BME280;9287;49.456;11.064;2022-12-07T00:04:02;98154.56;;;3.01;100.00
18323;BME280;9287;49.456;11.064;2022-12-07T00:06:33;98147.97;;;3.07;100.00
18323;BME280;9287;49.456;11.064;2022-12-07T00:09:01;98152.38;;;3.03;100.00
18323;BME280;9287;49.456;11.064;2022-12-07T00:11:30;98149.75;;;2.98;100.00
18323;BME280;9287;49.456;11.064;2022-12-07T00:13:59;98153.38;;;3.07;100.00
18323;BME280;9287;49.456;11.064;2022-12-07T00:16:29;98149.97;;;3.15;100.00
18323;BME280;9287;49.456;11.064;2022-12-07T00:18:59;98150.88;;;3.10;100.00
18323;BME280;9287;49.456;11.064;2022-12-07T00:21:28;98149.47;;;3.13;100.00
18323;BME280;9287;49.456;11.064;2022-12-07T00:23:57;98142.97;;;3.14;100.00
18323;BME280;9287;49.456;11.064;2022-12-07T00:26:26;98145.97;;;3.12;100.00
18323;BME280;9287;49.456;11.064;2022-12-07T00:28:58;98150.56;;;3.12;100.00
18323;BME280;9287;49.456;11.064;2022-12-07T00:31:28;98142.47;;;3.12;100.00
18323;BME280;9287;49.456;11.064;2022-12-07T00:33:57;98150.19;;;3.05;100.00
18323;BME280;9287;49.456;11.064;2022-12-07T00:36:25;98135.50;;;3.11;100.00
18323;BME280;9287;49.456;11.064;2022-12-07T00:38:53;98137.50;;;3.05;100.00
18323;BME280;9287;49.456;11.064;2022-12-07T00:41:23;98135.59;;;3.06;100.00
18323;BME280;9287;49.456;11.064;2022-12-07T00:43:51;98134.38;;;3.12;100.00
18323;BME280;9287;49.456;11.064;2022-12-07T00:46:21;98138.19;;;3.11;100.00
18323;BME280;9287;49.456;11.064;2022-12-07T00:48:50;98142.59;;;3.07;100.00
18323;BME280;9287;49.456;11.064;2022-12-07T00:51:20;98130.78;;;3.03;100.00
18323;BME280;9287;49.456;11.064;2022-12-07T00:53:48;98135.59;;;3.06;100.00
18323;BME280;9287;49.456;11.064;2022-12-07T00:56:19;98141.56;;;3.03;100.00
18323;BME280;9287;49.456;11.064;2022-12-07T00:58:50;98144.38;;;2.98;100.00
18323;BME280;9287;49.456;11.064;2022-12-07T01:01:18;98147.56;;;3.00;100.00
18323;BME280;9287;49.456;11.064;2022-12-07T01:03:54;98138.00;;;2.94;100.00
18323;BME280;9287;49.456;11.064;2022-12-07T01:06:31;98143.47;;;2.89;100.00
18323;BME280;9287;49.456;11.064;2022-12-07T01:09:00;98143.84;;;2.96;100.00
18323;BME280;9287;49.456;11.064;2022-12-07T01:11:29;98140.78;;;2.89;100.00
18323;BME280;9287;49.456;11.064;2022-12-07T01:13:58;98134.16;;;2.95;100.00
18323;BME280;9287;49.456;11.064;2022-12-07T01:16:29;98142.75;;;2.97;100.00
18323;BME280;9287;49.456;11.064;2022-12-07T01:19:04;98142.75;;;2.97;100.00
18323;BME280;9287;49.456;11.064;2022-12-07T01:21:34;98145.47;;;2.97;100.00
18323;BME280;9287;49.456;11.064;2022-12-07T01:24:05;98145.47;;;2.97;100.00
18323;BME280;9287;49.456;11.064;2022-12-07T01:26:34;98148.16;;;2.97;100.00
18323;BME280;9287;49.456;11.064;2022-12-07T01:29:01;98140.56;;;2.99;100.00
18323;BME280;9287;49.456;11.064;2022-12-07T01:31:29;98144.78;;;3.05;100.00
18323;BME280;9287;49.456;11.064;2022-12-07T01:33:59;98144.19;;;3.08;100.00
18323;BME280;9287;49.456;11.064;2022-12-07T01:36:29;98143.38;;;3.07;100.00
18323;BME280;9287;49.456;11.064;2022-12-07T01:38:59;98144.19;;;3.08;100.00
18323;BME280;9287;49.456;11.064;2022-12-07T01:41:30;98144.19;;;3.08;100.00
18323;BME280;9287;49.456;11.064;2022-12-07T01:44:18;98150.75;;;3.02;100.00
18323;BME280;9287;49.456;11.064;2022-12-07T01:46:47;98137.78;;;3.04;100.00
18323;BME280;9287;49.456;11.064;2022-12-07T01:49:22;98147.97;;;3.07;100.00
18323;BME280;9287;49.456;11.064;2022-12-07T01:51:52;98144.38;;;2.98;100.00
18323;BME280;9287;49.456;11.064;2022-12-07T01:54:23;98141.06;;;3.01;100.00
18323;BME280;9287;49.456;11.064;2022-12-07T01:56:53;98137.06;;;2.98;100.00
18323;BME280;9287;49.456;11.064;2022-12-07T01:59:25;98137.78;;;3.04;100.00
18323;BME280;9287;49.456;11.064;2022-12-07T02:01:54;98139.47;;;3.00;100.00
18323;BME280;9287;49.456;11.064;2022-12-07T02:04:24;98132.59;;;2.94;100.00
18323;BME280;9287;49.456;11.064;2022-12-07T02:06:52;98132.38;;;2.90;100.00
18323;BME280;9287;49.456;11.064;2022-12-07T02:09:24;98129.47;;;2.87;100.00
18323;BME280;9287;49.456;11.064;2022-12-07T02:11:52;98131.16;;;2.83;100.00
18323;BME280;9287;49.456;11.064;2022-12-07T02:14:20;98132.25;;;2.82;100.00
18323;BME280;9287;49.456;11.064;2022-12-07T02:16:59;98136.56;;;2.83;100.00
18323;BME280;9287;49.456;11.064;2022-12-07T02:20:08;98131.97;;;2.69;100.00
18323;BME280;9287;49.456;11.064;2022-12-07T02:23:00;98135.97;;;2.86;100.00
18323;BME280;9287;49.456;11.064;2022-12-07T02:25:46;98140.97;;;2.92;100.00
18323;BME280;9287;49.456;11.064;2022-12-07T02:28:27;98135.38;;;2.89;100.00
18323;BME280;9287;49.456;11.064;2022-12-07T02:31:03;98134.97;;;2.82;100.00
18323;BME280;9287;49.456;11.064;2022-12-07T02:33:38;98130.38;;;2.82;100.00
18323;BME280;9287;49.456;11.064;2022-12-07T02:36:12;98138.16;;;2.84;100.00
18323;BME280;9287;49.456;11.064;2022-12-07T02:38:50;98132.75;;;2.84;100.00
18323;BME280;9287;49.456;11.064;2022-12-07T02:41:25;98134.38;;;2.85;100.00
18323;BME280;9287;49.456;11.064;2022-12-07T02:43:58;98137.16;;;2.79;100.00
18323;BME280;9287;49.456;11.064;2022-12-07T02:46:31;98126.97;;;2.76;100.00
18323;BME280;9287;49.456;11.064;2022-12-07T02:49:01;98129.84;;;2.80;100.00
18323;BME280;9287;49.456;11.064;2022-12-07T02:51:30;98126.38;;;2.79;100.00
18323;BME280;9287;49.456;11.064;2022-12-07T02:53:58;98118.38;;;2.74;100.00
18323;BME280;9287;49.456;11.064;2022-12-07T02:56:32;98119.19;;;2.75;100.00
18323;BME280;9287;49.456;11.064;2022-12-07T02:59:14;98115.19;;;2.72;100.00
18323;BME280;9287;49.456;11.064;2022-12-07T03:01:51;98105.38;;;2.63;100.00
18323;BME280;9287;49.456;11.064;2022-12-07T03:04:31;98098.59;;;2.65;100.00
18323;BME280;9287;49.456;11.064;2022-12-07T03:07:20;98108.38;;;2.61;100.00
18323;BME280;9287;49.456;11.064;2022-12-07T03:09:58;98093.41;;;2.55;100.00
18323;BME280;9287;49.456;11.064;2022-12-07T03:12:31;98084.16;;;2.42;100.00
18323;BME280;9287;49.456;11.064;2022-12-07T03:15:07;98090.34;;;2.43;100.00
18323;BME280;9287;49.456;11.064;2022-12-07T03:17:40;98085.59;;;2.40;100.00
18323;BME280;9287;49.456;11.064;2022-12-07T03:20:11;98086.97;;;2.37;100.00
18323;BME280;9287;49.456;11.064;2022-12-07T03:22:42;98085.06;;;2.38;100.00
18323;BME280;9287;49.456;11.064;2022-12-07T03:25:14;98089.09;;;2.40;100.00
18323;BME280;9287;49.456;11.064;2022-12-07T03:27:46;98083.78;;;2.49;100.00
18323;BME280;9287;49.456;11.064;2022-12-07T03:30:20;98084.38;;;2.46;100.00
18323;BME280;9287;49.456;11.064;2022-12-07T03:32:53;98078.00;;;2.42;100.00
18323;BME280;9287;49.456;11.064;2022-12-07T03:35:27;98080.38;;;2.43;100.00
18323;BME280;9287;49.456;11.064;2022-12-07T03:37:59;98078.00;;;2.42;100.00
18323;BME280;9287;49.456;11.064;2022-12-07T03:40:30;98078.78;;;2.42;100.00
18323;BME280;9287;49.456;11.064;2022-12-07T03:43:01;98064.69;;;2.32;100.00
18323;BME280;9287;49.456;11.064;2022-12-07T03:45:34;98065.81;;;2.44;100.00
18323;BME280;9287;49.456;11.064;2022-12-07T03:48:10;98068.00;;;2.42;100.00
18323;BME280;9287;49.456;11.064;2022-12-07T03:50:49;98077.38;;;2.45;100.00
18323;BME280;9287;49.456;11.064;2022-12-07T03:53:22;98067.13;;;2.47;100.00
18323;BME280;9287;49.456;11.064;2022-12-07T03:55:52;98066.22;;;2.38;100.00
18323;BME280;9287;49.456;11.064;2022-12-07T03:58:22;98063.19;;;2.26;100.00
18323;BME280;9287;49.456;11.064;2022-12-07T04:00:51;98065.47;;;2.19;100.00
18323;BME280;9287;49.456;11.064;2022-12-07T04:03:20;98075.66;;;2.22;100.00
18323;BME280;9287;49.456;11.064;2022-12-07T04:05:49;98080.63;;;2.15;100.00
18323;BME280;9287;49.456;11.064;2022-12-07T04:08:28;98075.53;;;2.13;100.00
18323;BME280;9287;49.456;11.064;2022-12-07T04:11:05;98072.53;;;2.15;100.00
18323;BME280;9287;49.456;11.064;2022-12-07T04:13:33;98070.53;;;2.06;100.00
18323;BME280;9287;49.456;11.064;2022-12-07T04:16:20;98066.75;;;2.07;100.00
18323;BME280;9287;49.456;11.064;2022-12-07T04:18:50;98075.31;;;2.09;100.00
18323;BME280;9287;49.456;11.064;2022-12-07T04:21:17;98077.66;;;1.97;100.00
18323;BME280;9287;49.456;11.064;2022-12-07T04:23:45;98074.38;;;2.00;100.00
18323;BME280;9287;49.456;11.064;2022-12-07T04:26:13;98081.03;;;1.89;100.00
18323;BME280;9287;49.456;11.064;2022-12-07T04:28:40;98082.44;;;1.87;100.00
18323;BME280;9287;49.456;11.064;2022-12-07T04:31:08;98088.63;;;1.87;100.00
18323;BME280;9287;49.456;11.064;2022-12-07T04:33:36;98090.84;;;1.99;100.00
18323;BME280;9287;49.456;11.064;2022-12-07T04:36:06;98088.94;;;1.99;100.00
18323;BME280;9287;49.456;11.064;2022-12-07T04:38:34;98089.81;;;1.95;100.00
18323;BME280;9287;49.456;11.064;2022-12-07T04:41:04;98086.47;;;2.03;100.00
18323;BME280;9287;49.456;11.064;2022-12-07T04:43:32;98072.22;;;2.02;100.00
18323;BME280;9287;49.456;11.064;2022-12-07T04:46:00;98082.91;;;2.07;100.00
18323;BME280;9287;49.456;11.064;2022-12-07T04:48:28;98079.81;;;2.14;100.00
18323;BME280;9287;49.456;11.064;2022-12-07T04:50:56;98085.50;;;2.13;100.00
18323;BME280;9287;49.456;11.064;2022-12-07T04:53:25;98091.00;;;2.07;100.00
18323;BME280;9287;49.456;11.064;2022-12-07T04:55:53;98086.38;;;2.08;100.00
18323;BME280;9287;49.456;11.064;2022-12-07T04:58:21;98083.91;;;2.12;100.00
18323;BME280;9287;49.456;11.064;2022-12-07T05:00:48;98086.00;;;2.15;100.00
18323;BME280;9287;49.456;11.064;2022-12-07T05:03:16;98082.91;;;2.07;100.00
18323;BME280;9287;49.456;11.064;2022-12-07T05:05:44;98086.59;;;2.12;100.00
18323;BME280;9287;49.456;11.064;2022-12-07T05:08:12;98082.91;;;2.07;100.00
18323;BME280;9287;49.456;11.064;2022-12-07T05:10:41;98082.50;;;2.14;100.00
18323;BME280;9287;49.456;11.064;2022-12-07T05:13:09;98080.69;;;2.09;100.00
18323;BME280;9287;49.456;11.064;2022-12-07T05:15:38;98082.91;;;2.07;100.00
18323;BME280;9287;49.456;11.064;2022-12-07T05:18:06;98084.69;;;2.12;100.00
18323;BME280;9287;49.456;11.064;2022-12-07T05:20:35;98080.09;;;2.13;100.00
18323;BME280;9287;49.456;11.064;2022-12-07T05:23:08;98078.94;;;2.19;100.00
18323;BME280;9287;49.456;11.064;2022-12-07T05:25:35;98072.75;;;2.18;100.00
18323;BME280;9287;49.456;11.064;2022-12-07T05:28:05;98079.53;;;2.16;100.00
18323;BME280;9287;49.456;11.064;2022-12-07T05:30:33;98082.66;;;2.23;100.00
18323;BME280;9287;49.456;11.064;2022-12-07T05:33:01;98083.00;;;2.16;100.00
18323;BME280;9287;49.456;11.064;2022-12-07T05:35:30;98085.63;;;2.21;100.00
18323;BME280;9287;49.456;11.064;2022-12-07T05:37:57;98086.59;;;2.12;100.00
18323;BME280;9287;49.456;11.064;2022-12-07T05:40:26;98087.59;;;2.16;100.00
18323;BME280;9287;49.456;11.064;2022-12-07T05:42:54;98082.81;;;2.13;100.00
18323;BME280;9287;49.456;11.064;2022-12-07T05:45:31;98088.13;;;2.18;100.00
18323;BME280;9287;49.456;11.064;2022-12-07T05:47:59;98078.69;;;2.01;100.00
18323;BME280;9287;49.456;11.064;2022-12-07T05:50:27;98075.13;;;2.06;100.00
18323;BME280;9287;49.456;11.064;2022-12-07T05:52:58;98090.88;;;2.13;100.00
18323;BME280;9287;49.456;11.064;2022-12-07T05:55:26;98077.78;;;2.25;100.00
18323;BME280;9287;49.456;11.064;2022-12-07T05:57:53;98072.75;;;2.18;100.00
18323;BME280;9287;49.456;11.064;2022-12-07T06:00:40;98078.34;;;2.22;100.00
18323;BME280;9287;49.456;11.064;2022-12-07T06:03:14;98076.25;;;2.19;100.00
18323;BME280;9287;49.456;11.064;2022-12-07T06:05:42;98072.53;;;2.15;100.00
18323;BME280;9287;49.456;11.064;2022-12-07T06:08:10;98084.53;;;2.22;100.00
18323;BME280;9287;49.456;11.064;2022-12-07T06:10:38;98087.53;;;2.21;100.00
18323;BME280;9287;49.456;11.064;2022-12-07T06:13:06;98073.56;;;2.19;100.00
18323;BME280;9287;49.456;11.064;2022-12-07T06:15:35;98076.31;;;2.14;100.00
18323;BME280;9287;49.456;11.064;2022-12-07T06:18:04;98075.72;;;2.17;100.00
18323;BME280;9287;49.456;11.064;2022-12-07T06:20:32;98073.16;;;2.25;100.00
18323;BME280;9287;49.456;11.064;2022-12-07T06:23:00;98074.13;;;2.16;100.00
18323;BME280;9287;49.456;11.064;2022-12-07T06:25:28;98080.69;;;2.09;100.00
18323;BME280;9287;49.456;11.064;2022-12-07T06:27:55;98082.72;;;2.18;100.00
18323;BME280;9287;49.456;11.064;2022-12-07T06:30:23;98076.31;;;2.14;100.00
18323;BME280;9287;49.456;11.064;2022-12-07T06:32:51;98082.28;;;2.10;100.00
18323;BME280;9287;49.456;11.064;2022-12-07T06:35:20;98087.59;;;2.16;100.00
18323;BME280;9287;49.456;11.064;2022-12-07T06:37:47;98079.75;;;2.19;100.00
18323;BME280;9287;49.456;11.064;2022-12-07T06:40:15;98078.94;;;2.19;100.00
18323;BME280;9287;49.456;11.064;2022-12-07T06:42:43;98087.03;;;2.19;100.00
18323;BME280;9287;49.456;11.064;2022-12-07T06:45:10;98088.34;;;2.21;100.00
18323;BME280;9287;49.456;11.064;2022-12-07T06:47:38;98075.97;;;2.34;100.00
18323;BME280;9287;49.456;11.064;2022-12-07T06:50:09;98074.81;;;2.40;100.00
18323;BME280;9287;49.456;11.064;2022-12-07T06:52:38;98076.28;;;2.46;100.00
18323;BME280;9287;49.456;11.064;2022-12-07T06:55:09;98071.41;;;2.48;100.00
18323;BME280;9287;49.456;11.064;2022-12-07T06:57:37;98075.41;;;2.37;100.00
18323;BME280;9287;49.456;11.064;2022-12-07T07:00:06;98070.59;;;2.34;100.00
18323;BME280;9287;49.456;11.064;2022-12-07T07:02:34;98080.38;;;2.43;100.00
18323;BME280;9287;49.456;11.064;2022-12-07T07:05:01;98074.28;;;2.38;100.00
18323;BME280;9287;49.456;11.064;2022-12-07T07:07:29;98079.56;;;2.43;100.00
18323;BME280;9287;49.456;11.064;2022-12-07T07:10:09;98087.38;;;2.44;100.00
18323;BME280;9287;49.456;11.064;2022-12-07T07:12:37;98079.19;;;2.36;100.00
18323;BME280;9287;49.456;11.064;2022-12-07T07:15:05;98083.97;;;2.39;100.00
18323;BME280;9287;49.456;11.064;2022-12-07T07:17:33;98085.47;;;2.45;100.00
18323;BME280;9287;49.456;11.064;2022-12-07T07:20:01;98095.16;;;2.46;100.00
18323;BME280;9287;49.456;11.064;2022-12-07T07:22:29;98087.19;;;2.41;100.00
18323;BME280;9287;49.456;11.064;2022-12-07T07:24:56;98087.59;;;2.48;100.00
18323;BME280;9287;49.456;11.064;2022-12-07T07:27:26;98089.78;;;2.46;100.00
18323;BME280;9287;49.456;11.064;2022-12-07T07:29:53;98082.19;;;2.48;100.00
18323;BME280;9287;49.456;11.064;2022-12-07T07:32:21;98086.56;;;2.44;100.00
18323;BME280;9287;49.456;11.064;2022-12-07T07:34:49;98092.38;;;2.51;100.00
18323;BME280;9287;49.456;11.064;2022-12-07T07:37:16;98090.34;;;2.43;100.00
18323;BME280;9287;49.456;11.064;2022-12-07T07:39:47;98086.41;;;2.54;100.00
18323;BME280;9287;49.456;11.064;2022-12-07T07:42:15;98083.41;;;2.56;100.00
18323;BME280;9287;49.456;11.064;2022-12-07T07:44:44;98090.41;;;2.57;100.00
18323;BME280;9287;49.456;11.064;2022-12-07T07:47:12;98103.38;;;2.55;100.00
18323;BME280;9287;49.456;11.064;2022-12-07T07:49:40;98097.00;;;2.64;100.00
18323;BME280;9287;49.456;11.064;2022-12-07T07:52:13;98094.22;;;2.69;100.00
18323;BME280;9287;49.456;11.064;2022-12-07T07:54:41;98103.19;;;2.78;100.00
18323;BME280;9287;49.456;11.064;2022-12-07T07:57:09;98096.69;;;2.79;100.00
18323;BME280;9287;49.456;11.064;2022-12-07T07:59:36;98094.41;;;2.87;100.00
18323;BME280;9287;49.456;11.064;2022-12-07T08:02:05;98099.81;;;2.87;100.00
18323;BME280;9287;49.456;11.064;2022-12-07T08:04:33;98104.91;;;2.88;100.00
18323;BME280;9287;49.456;11.064;2022-12-07T08:07:01;98103.00;;;2.89;100.00
18323;BME280;9287;49.456;11.064;2022-12-07T08:09:29;98103.31;;;3.01;100.00
18323;BME280;9287;49.456;11.064;2022-12-07T08:11:57;98100.00;;;3.04;100.00
18323;BME280;9287;49.456;11.064;2022-12-07T08:14:25;98102.81;;;2.99;100.00
18323;BME280;9287;49.456;11.064;2022-12-07T08:16:53;98101.03;;;2.94;100.00
18323;BME280;9287;49.456;11.064;2022-12-07T08:19:23;98107.81;;;3.05;100.00
18323;BME280;9287;49.456;11.064;2022-12-07T08:21:51;98102.22;;;3.02;100.00
18323;BME280;9287;49.456;11.064;2022-12-07T08:24:18;98101.19;;;2.98;100.00
18323;BME280;9287;49.456;11.064;2022-12-07T08:26:46;98103.09;;;2.97;100.00
18323;BME280;9287;49.456;11.064;2022-12-07T08:29:14;98102.81;;;2.99;100.00
18323;BME280;9287;49.456;11.064;2022-12-07T08:31:42;98105.00;;;2.97;100.00
18323;BME280;9287;49.456;11.064;2022-12-07T08:34:10;98110.38;;;2.97;100.00
18323;BME280;9287;49.456;11.064;2022-12-07T08:36:40;98114.19;;;2.96;100.00
18323;BME280;9287;49.456;11.064;2022-12-07T08:39:07;98102.81;;;2.99;100.00
18323;BME280;9287;49.456;11.064;2022-12-07T08:41:55;98096.53;;;3.03;100.00
18323;BME280;9287;49.456;11.064;2022-12-07T08:44:23;98099.72;;;3.05;100.00
18323;BME280;9287;49.456;11.064;2022-12-07T08:46:54;98094.03;;;3.07;100.00
18323;BME280;9287;49.456;11.064;2022-12-07T08:49:26;98100.00;;;3.04;100.00
18323;BME280;9287;49.456;11.064;2022-12-07T08:51:56;98094.03;;;3.07;100.00
18323;BME280;9287;49.456;11.064;2022-12-07T08:54:24;98097.53;;;3.07;100.00
18323;BME280;9287;49.456;11.064;2022-12-07T08:56:54;98092.94;;;3.08;100.00
18323;BME280;9287;49.456;11.064;2022-12-07T08:59:25;98102.00;;;3.12;100.00
18323;BME280;9287;49.456;11.064;2022-12-07T09:01:53;98096.41;;;3.22;100.00
18323;BME280;9287;49.456;11.064;2022-12-07T09:04:21;98098.41;;;3.17;100.00
18323;BME280;9287;49.456;11.064;2022-12-07T09:06:49;98096.00;;;3.15;100.00
18323;BME280;9287;49.456;11.064;2022-12-07T09:09:19;98098.00;;;3.23;100.00
18323;BME280;9287;49.456;11.064;2022-12-07T09:11:46;98095.91;;;3.20;100.00
18323;BME280;9287;49.456;11.064;2022-12-07T09:14:14;98099.69;;;3.19;100.00
18323;BME280;9287;49.456;11.064;2022-12-07T09:16:42;98099.69;;;3.19;100.00
18323;BME280;9287;49.456;11.064;2022-12-07T09:19:10;98109.63;;;3.10;100.00
18323;BME280;9287;49.456;11.064;2022-12-07T09:21:37;98118.91;;;3.04;100.00
18323;BME280;9287;49.456;11.064;2022-12-07T09:24:06;98114.19;;;2.96;100.00
18323;BME280;9287;49.456;11.064;2022-12-07T09:26:35;98114.19;;;2.96;100.00
18323;BME280;9287;49.456;11.064;2022-12-07T09:29:04;98119.78;;;2.99;100.00
18323;BME280;9287;49.456;11.064;2022-12-07T09:31:32;98127.00;;;3.04;100.00
18323;BME280;9287;49.456;11.064;2022-12-07T09:34:00;98117.22;;;3.08;100.00
18323;BME280;9287;49.456;11.064;2022-12-07T09:36:28;98114.59;;;3.03;100.00
18323;BME280;9287;49.456;11.064;2022-12-07T09:38:56;98110.59;;;3.00;100.00
18323;BME280;9287;49.456;11.064;2022-12-07T09:41:25;98119.41;;;3.06;100.00
18323;BME280;9287;49.456;11.064;2022-12-07T09:44:02;98114.00;;;3.06;100.00
18323;BME280;9287;49.456;11.064;2022-12-07T09:46:35;98106.91;;;3.10;100.00
18323;BME280;9287;49.456;11.064;2022-12-07T09:49:04;98110.59;;;3.14;100.00
18323;BME280;9287;49.456;11.064;2022-12-07T09:51:32;98113.28;;;3.14;100.00
18323;BME280;9287;49.456;11.064;2022-12-07T09:54:00;98117.09;;;3.13;100.00
18323;BME280;9287;49.456;11.064;2022-12-07T09:56:29;98102.63;;;3.09;100.00
18323;BME280;9287;49.456;11.064;2022-12-07T09:59:01;98103.22;;;3.06;100.00
18323;BME280;9287;49.456;11.064;2022-12-07T10:01:31;98102.81;;;2.99;100.00
18323;BME280;9287;49.456;11.064;2022-12-07T10:04:06;98103.41;;;2.96;100.00
18323;BME280;9287;49.456;11.064;2022-12-07T10:06:36;98099.22;;;3.03;100.00
18323;BME280;9287;49.456;11.064;2022-12-07T10:09:09;98107.59;;;3.02;100.00
18323;BME280;9287;49.456;11.064;2022-12-07T10:12:02;98107.00;;;3.05;100.00
18323;BME280;9287;49.456;11.064;2022-12-07T10:14:33;98104.22;;;3.10;100.00
18323;BME280;9287;49.456;11.064;2022-12-07T10:17:33;98094.81;;;3.21;100.00
18323;BME280;9287;49.456;11.064;2022-12-07T10:20:31;98093.63;;;3.27;100.00
18323;BME280;9287;49.456;11.064;2022-12-07T10:23:01;98090.19;;;3.35;100.00
18323;BME280;9287;49.456;11.064;2022-12-07T10:25:31;98085.81;;;3.26;100.00
18323;BME280;9287;49.456;11.064;2022-12-07T10:28:02;98084.00;;;3.35;100.00
18323;BME280;9287;49.456;11.064;2022-12-07T10:30:32;98082.59;;;3.37;100.00
18323;BME280;9287;49.456;11.064;2022-12-07T10:33:00;98081.19;;;3.40;100.00
18323;BME280;9287;49.456;11.064;2022-12-07T10:35:29;98075.56;;;3.50;100.00
18323;BME280;9287;49.456;11.064;2022-12-07T10:37:59;98069.19;;;3.46;100.00
18323;BME280;9287;49.456;11.064;2022-12-07T10:40:30;98069.97;;;3.46;100.00
18323;BME280;9287;49.456;11.064;2022-12-07T10:43:17;98066.16;;;3.47;100.00
18323;BME280;9287;49.456;11.064;2022-12-07T10:48:54;98056.25;;;3.57;100.00
18323;BME280;9287;49.456;11.064;2022-12-07T10:51:31;98062.94;;;3.59;100.00
18323;BME280;9287;49.456;11.064;2022-12-07T10:54:10;98060.56;;;3.58;100.00
18323;BME280;9287;49.456;11.064;2022-12-07T10:56:53;98061.34;;;3.58;100.00
18323;BME280;9287;49.456;11.064;2022-12-07T10:59:42;98056.69;;;3.72;100.00
18323;BME280;9287;49.456;11.064;2022-12-07T11:02:24;98055.97;;;3.80;100.00
18323;BME280;9287;49.456;11.064;2022-12-07T11:05:04;98069.50;;;3.80;100.00
18323;BME280;9287;49.456;11.064;2022-12-07T11:07:43;98056.63;;;3.86;100.00
18323;BME280;9287;49.456;11.064;2022-12-07T11:10:25;98055.78;;;3.77;100.00
18323;BME280;9287;49.456;11.064;2022-12-07T11:13:11;98053.91;;;3.64;100.00
18323;BME280;9287;49.456;11.064;2022-12-07T11:15:55;98051.34;;;3.59;100.00
18323;BME280;9287;49.456;11.064;2022-12-07T11:18:33;98040.59;;;3.67;100.00
18323;BME280;9287;49.456;11.064;2022-12-07T11:21:09;98037.97;;;3.76;100.00
18323;BME280;9287;49.456;11.064;2022-12-07T11:23:48;98033.38;;;3.76;100.00
18323;BME280;9287;49.456;11.064;2022-12-07T11:26:23;98041.69;;;3.80;100.00
18323;BME280;9287;49.456;11.064;2022-12-07T11:29:08;98038.84;;;3.85;100.00
18323;BME280;9287;49.456;11.064;2022-12-07T11:31:50;98030.25;;;3.83;100.00
18323;BME280;9287;49.456;11.064;2022-12-07T11:34:34;98030.88;;;3.80;100.00
18323;BME280;9287;49.456;11.064;2022-12-07T11:37:08;98030.53;;;3.81;100.00
18323;BME280;9287;49.456;11.064;2022-12-07T11:39:42;98036.88;;;3.77;100.00
18323;BME280;9287;49.456;11.064;2022-12-07T11:42:14;98024.84;;;3.83;100.00
18323;BME280;9287;49.456;11.064;2022-12-07T11:44:50;98024.09;;;3.91;100.00
18323;BME280;9287;49.456;11.064;2022-12-07T11:47:23;98028.03;;;3.85;100.00
18323;BME280;9287;49.456;11.064;2022-12-07T11:49:58;98027.03;;;3.81;100.00
18323;BME280;9287;49.456;11.064;2022-12-07T11:52:43;98027.03;;;3.81;100.00
18323;BME280;9287;49.456;11.064;2022-12-07T11:55:18;98026.69;;;3.74;100.00
18323;BME280;9287;49.456;11.064;2022-12-07T11:57:51;98016.50;;;3.71;100.00
18323;BME280;9287;49.456;11.064;2022-12-07T12:00:20;98014.28;;;3.73;100.00
18323;BME280;9287;49.456;11.064;2022-12-07T12:02:51;98017.00;;;3.73;100.00
18323;BME280;9287;49.456;11.064;2022-12-07T12:05:25;98012.56;;;3.77;100.00
18323;BME280;9287;49.456;11.064;2022-12-07T12:08:02;98006.06;;;3.78;100.00
18323;BME280;9287;49.456;11.064;2022-12-07T12:10:57;98012.44;;;3.82;100.00
18323;BME280;9287;49.456;11.064;2022-12-07T12:13:51;98007.97;;;3.77;100.00
18323;BME280;9287;49.456;11.064;2022-12-07T12:17:03;98015.69;;;3.70;100.00
18323;BME280;9287;49.456;11.064;2022-12-07T12:19:40;98013.69;;;3.76;100.00
18323;BME280;9287;49.456;11.064;2022-12-07T12:22:15;98012.28;;;3.78;100.00
18323;BME280;9287;49.456;11.064;2022-12-07T12:24:45;98005.88;;;3.74;100.00
18323;BME280;9287;49.456;11.064;2022-12-07T12:27:21;98005.88;;;3.74;100.00
18323;BME280;9287;49.456;11.064;2022-12-07T12:29:54;98005.28;;;3.77;100.00
18323;BME280;9287;49.456;11.064;2022-12-07T12:32:31;97995.63;;;3.85;100.00
18323;BME280;9287;49.456;11.064;2022-12-07T12:35:29;97995.00;;;3.88;100.00
18323;BME280;9287;49.456;11.064;2022-12-07T12:38:27;97988.19;;;3.91;100.00
18323;BME280;9287;49.456;11.064;2022-12-07T12:40:57;97996.09;;;3.87;100.00
18323;BME280;9287;49.456;11.064;2022-12-07T12:43:50;97996.00;;;3.92;100.00
18323;BME280;9287;49.456;11.064;2022-12-07T12:46:38;97997.22;;;3.86;100.00
18323;BME280;9287;49.456;11.064;2022-12-07T12:49:33;97999.97;;;3.95;100.00
18323;BME280;9287;49.456;11.064;2022-12-07T12:55:27;97985.41;;;3.82;100.00
18323;BME280;9287;49.456;11.064;2022-12-07T12:58:28;97978.19;;;3.91;100.00
18323;BME280;9287;49.456;11.064;2022-12-07T13:04:03;97984.19;;;3.88;100.00
18323;BME280;9287;49.456;11.064;2022-12-07T13:06:42;97981.75;;;3.78;100.00
18323;BME280;9287;49.456;11.064;2022-12-07T13:09:18;97985.41;;;3.82;100.00
18323;BME280;9287;49.456;11.064;2022-12-07T13:11:56;97978.91;;;3.83;100.00
18323;BME280;9287;49.456;11.064;2022-12-07T13:14:54;97977.47;;;3.77;100.00
18323;BME280;9287;49.456;11.064;2022-12-07T13:20:53;97970.81;;;3.83;100.00
18323;BME280;9287;49.456;11.064;2022-12-07T13:23:24;97966.50;;;3.82;100.00
18323;BME280;9287;49.456;11.064;2022-12-07T13:26:13;97965.72;;;3.81;100.00
18323;BME280;9287;49.456;11.064;2022-12-07T13:28:46;97964.88;;;3.72;100.00
18323;BME280;9287;49.456;11.064;2022-12-07T13:31:23;97967.28;;;3.74;100.00
18323;BME280;9287;49.456;11.064;2022-12-07T13:33:54;97975.88;;;3.76;100.00
18323;BME280;9287;49.456;11.064;2022-12-07T13:36:24;97975.25;;;3.79;100.00
18323;BME280;9287;49.456;11.064;2022-12-07T13:38:54;97976.06;;;3.79;100.00
18323;BME280;9287;49.456;11.064;2022-12-07T13:41:24;97968.75;;;3.80;100.00